E.r. Borneo — A8SZ4 — position and weather

sailwx.info

Track history (hours):
 
Tides and Currents Weather Stations Pressure Air Temp Water Temp Dewpoint Dewpoint Depression Visibility Wind Speed Wind Dir Waves Ship Positions

E.r. Borneo

Last reported at 2018-May-21 15:00 UTC. Time now 2018-May-27 01:28 UTC.
Position N 16°54' E 109°06'.

Length 292 m; draft 16.7 m.

Type: Cargo ship. MMSI: 636091797.

Wind from 130 at 12 knots

Barometer 1010.0 mb
Air temperature 28.0 ° C
Visibility: greater than 10.8 NM
Dewpoint 26.7 ° C

Date/timePositionNaut miles runAvg speedWind from/ knotsBaromVisibWave heightAir tempDewpointWater temp
2018-May-21 15:00N 16°54' E 109°06'27210.9 130 / 121010.010.8 28.026.7
2018-May-20 14:00N 12°30' E 110°12'   060 / 51008.010.8 28.025.3
2018-May-17 19:23N 01°25' E 104°28'613.3
2018-May-17 18:58N 01°21' E 104°24'712.6
2018-May-17 18:27N 01°17' E 104°19'612.6
2018-May-17 17:58N 01°16' E 104°13'611.9
2018-May-17 17:30N 01°15' E 104°07'611.2
2018-May-17 16:59N 01°15' E 104°01'3 7.1
2018-May-17 16:31N 01°16' E 103°58'1 1.5
2018-May-17 15:54N 01°16' E 103°57'0 0.1
2018-May-17 15:29N 01°16' E 103°57'0 0.1
2018-May-17 14:59N 01°16' E 103°57'0 0.1
2018-May-17 14:29N 01°16' E 103°57'0 0.1
2018-May-17 13:56N 01°16' E 103°57'0 0.0
2018-May-17 13:23N 01°16' E 103°57'0 0.1
2018-May-17 12:59N 01°16' E 103°57'0 0.0
2018-May-17 12:29N 01°16' E 103°57'0 0.0
2018-May-17 11:59N 01°16' E 103°57'0 0.0
2018-May-17 11:29N 01°16' E 103°57'0 0.0
2018-May-17 10:50N 01°16' E 103°57'0 0.0
2018-May-17 10:23N 01°16' E 103°57'0 0.0
2018-May-17 09:53N 01°16' E 103°57'0 0.2
2018-May-17 09:24N 01°16' E 103°57'0 0.0
2018-May-17 08:59N 01°16' E 103°57'0 0.0
2018-May-17 08:20N 01°16' E 103°57'0 0.0
2018-May-17 07:59N 01°16' E 103°57'0 0.0
2018-May-17 07:29N 01°16' E 103°57'0 0.0
2018-May-17 06:56N 01°16' E 103°57'0 0.0
2018-May-17 06:25N 01°16' E 103°57'0 0.0
2018-May-17 05:59N 01°16' E 103°57'0 0.0
2018-May-17 05:14N 01°16' E 103°57'0 0.0
2018-May-17 04:56N 01°16' E 103°57'0 0.0
2018-May-17 04:26N 01°16' E 103°57'0 0.0
2018-May-17 03:58N 01°16' E 103°57'0 0.0
2018-May-17 02:50N 01°16' E 103°57'0 0.4
2018-May-17 02:29N 01°16' E 103°57'0 0.2
2018-May-17 01:59N 01°16' E 103°57'0 0.9
2018-May-17 01:29N 01°16' E 103°57'1 2.0
2018-May-17 00:59N 01°15' E 103°57'2 3.3
2018-May-17 00:30N 01°14' E 103°56'3 5.5
2018-May-16 23:58N 01°12' E 103°53'3 7.1
2018-May-16 23:30N 01°11' E 103°50'4 8.9
2018-May-16 23:00N 01°09' E 103°46'5 9.5
2018-May-16 22:30N 01°06' E 103°43'510.1
2018-May-16 21:59N 01°03' E 103°38'5 9.8
2018-May-16 21:30N 01°06' E 103°34'510.4
2018-May-16 21:00N 01°09' E 103°30'510.3
2018-May-16 20:30N 01°11' E 103°25'4 8.1
2018-May-16 20:00N 01°13' E 103°22'5 9.6
2018-May-16 19:30N 01°16' E 103°18'710.4
2018-May-16 18:48N 01°21' E 103°13'510.3
2018-May-16 18:19N 01°24' E 103°09'56010.9
2018-May-14 15:00N 06°00' E 095°00'24810.3 030 / 121010.010.8 28.025.3
2018-May-13 15:00N 03°30' E 091°42'24711.2 060 / 111010.010.8 28.025.3
2018-May-12 17:00N 00°54' E 088°30'77 7.7 080 / 161010.010.8 27.024.3
2018-May-12 07:00N 00°06' E 087°30'   100 / 81009.0 5.4 32.029.4
Track history (hours):
 
Tides and Currents Weather Stations Pressure Air Temp Water Temp Dewpoint Dewpoint Depression Visibility Wind Speed Wind Dir Waves Ship Positions

E.r. Borneo

Last reported at 2018-May-21 15:00 UTC. Time now 2018-May-27 01:28 UTC.
Position N 16°54' E 109°06'.

Length 292 m; draft 16.7 m.

Type: Cargo ship. MMSI: 636091797.

Wind from 130 at 12 knots

Barometer 1010.0 mb
Air temperature 28.0 ° C
Visibility: greater than 10.8 NM
Dewpoint 26.7 ° C

Date/timePositionNaut miles runAvg speedWind from/ knotsBaromVisibWave heightAir tempDewpointWater temp
2018-May-21 15:00N 16°54' E 109°06'27210.9 130 / 121010.010.8 28.026.7
2018-May-20 14:00N 12°30' E 110°12'   060 / 51008.010.8 28.025.3
2018-May-17 19:23N 01°25' E 104°28'613.3
2018-May-17 18:58N 01°21' E 104°24'712.6
2018-May-17 18:27N 01°17' E 104°19'612.6
2018-May-17 17:58N 01°16' E 104°13'611.9
2018-May-17 17:30N 01°15' E 104°07'611.2
2018-May-17 16:59N 01°15' E 104°01'3 7.1
2018-May-17 16:31N 01°16' E 103°58'1 1.5
2018-May-17 15:54N 01°16' E 103°57'0 0.1
2018-May-17 15:29N 01°16' E 103°57'0 0.1
2018-May-17 14:59N 01°16' E 103°57'0 0.1
2018-May-17 14:29N 01°16' E 103°57'0 0.1
2018-May-17 13:56N 01°16' E 103°57'0 0.0
2018-May-17 13:23N 01°16' E 103°57'0 0.1
2018-May-17 12:59N 01°16' E 103°57'0 0.0
2018-May-17 12:29N 01°16' E 103°57'0 0.0
2018-May-17 11:59N 01°16' E 103°57'0 0.0
2018-May-17 11:29N 01°16' E 103°57'0 0.0
2018-May-17 10:50N 01°16' E 103°57'0 0.0
2018-May-17 10:23N 01°16' E 103°57'0 0.0
2018-May-17 09:53N 01°16' E 103°57'0 0.2
2018-May-17 09:24N 01°16' E 103°57'0 0.0
2018-May-17 08:59N 01°16' E 103°57'0 0.0
2018-May-17 08:20N 01°16' E 103°57'0 0.0
2018-May-17 07:59N 01°16' E 103°57'0 0.0
2018-May-17 07:29N 01°16' E 103°57'0 0.0
2018-May-17 06:56N 01°16' E 103°57'0 0.0
2018-May-17 06:25N 01°16' E 103°57'0 0.0
2018-May-17 05:59N 01°16' E 103°57'0 0.0
2018-May-17 05:14N 01°16' E 103°57'0 0.0
2018-May-17 04:56N 01°16' E 103°57'0 0.0
2018-May-17 04:26N 01°16' E 103°57'0 0.0
2018-May-17 03:58N 01°16' E 103°57'0 0.0
2018-May-17 02:50N 01°16' E 103°57'0 0.4
2018-May-17 02:29N 01°16' E 103°57'0 0.2
2018-May-17 01:59N 01°16' E 103°57'0 0.9
2018-May-17 01:29N 01°16' E 103°57'1 2.0
2018-May-17 00:59N 01°15' E 103°57'2 3.3
2018-May-17 00:30N 01°14' E 103°56'3 5.5
2018-May-16 23:58N 01°12' E 103°53'3 7.1
2018-May-16 23:30N 01°11' E 103°50'4 8.9
2018-May-16 23:00N 01°09' E 103°46'5 9.5
2018-May-16 22:30N 01°06' E 103°43'510.1
2018-May-16 21:59N 01°03' E 103°38'5 9.8
2018-May-16 21:30N 01°06' E 103°34'510.4
2018-May-16 21:00N 01°09' E 103°30'510.3
2018-May-16 20:30N 01°11' E 103°25'4 8.1
2018-May-16 20:00N 01°13' E 103°22'5 9.6
2018-May-16 19:30N 01°16' E 103°18'710.4
2018-May-16 18:48N 01°21' E 103°13'510.3
2018-May-16 18:19N 01°24' E 103°09'56010.9
2018-May-14 15:00N 06°00' E 095°00'24810.3 030 / 121010.010.8 28.025.3
2018-May-13 15:00N 03°30' E 091°42'24711.2 060 / 111010.010.8 28.025.3
2018-May-12 17:00N 00°54' E 088°30'77 7.7 080 / 161010.010.8 27.024.3
2018-May-12 07:00N 00°06' E 087°30'   100 / 81009.0 5.4 32.029.4

Dump ship's entire track history